Cincinnati, OH (45213)

2:39 AM EST on February 28, 2017 (GMT -0500)
Amberley, Ohio | | Change Station

Elev 679 ft 39.20 °N, 84.43 °W | Updated 10 seconds ago

Partly Cloudy
Partly Cloudy
45.0 °F
Feels Like 45 °F
N
3.0
Wind Variable Wind from SE

Today
High -- | Low -- °F
--% Chance of Precip.
Yesterday
High -- | Low -- °F
Precip. -- in
Pressure 30.18 in
Visibility 4.0 miles
Clouds Clear
Windchill 45 °F
Dew Point 38 °F
Humidity 79%
Rainfall 0.00 in
Snow Depth Not available.
7:11 AM 6:29 PM
Waxing Crescent, 4% visible
METAR KLUK 280653Z AUTO 00000KT 4SM BR CLR 03/03 A3017 RMK AO2 SLP219 T00280028
Pressure 30.18 in
Visibility 4.0 miles
Clouds Clear
Windchill 45 °F
Dew Point 38 °F
Humidity 79%
Rainfall 0.00 in
Snow Depth Not available.
7:11 AM 6:29 PM
Waxing Crescent, 4% visible
METAR KLUK 280653Z AUTO 00000KT 4SM BR CLR 03/03 A3017 RMK AO2 SLP219 T00280028

Get Your Daily Forecast Email!

Thanks for signing up!

Be on the lookout for a verification email in your inbox.

You'll start receiving the daily forecast at 8 AM.

×

10-Day Weather Forecast

Almanac

Astronomy

Feb. 28, 2017 Rise Set
Actual Time
Civil Twilight
Nautical Twilight
Astronomical Twilight
Moon
Length of Visible Light
Length of Day
Tomorrow will be .
, % of the Moon is Illuminated

Today's Extremes

State Highs State Lows

Community

WunderPhotos

Upload Photos

1,962,540 photos uploaded!

WunderBlog® & News

Nearby

Air Quality

  Air Quality AQ Index Pollutant
Not available.

Snow Depth

Station Depth Elevation

Earthquake Activity

City Distance Mag. Time & Date
Minimum magnitude displayed is 2.5.

Coastal Water Temperatures

Place Temperature

Stations

Nearby Weather Stations

Station Location Temp. Windchill Dew Point Humidity Wind Precip. Elev Updated Type
                   

Watches & Warnings

There are currently no watches in effect.